createdAt,value
2017-10-31T00:00:35.872Z,102096
2017-10-31T00:03:04.009Z,102086
2017-10-31T00:05:32.728Z,102094
2017-10-31T00:08:00.876Z,102074
2017-10-31T00:10:32.819Z,102088
2017-10-31T00:13:00.992Z,102091
2017-10-31T00:15:32.327Z,102085
2017-10-31T00:18:00.552Z,102082
2017-10-31T00:20:29.443Z,102087
2017-10-31T00:22:57.601Z,102080
2017-10-31T00:25:26.677Z,102086
2017-10-31T00:27:55.866Z,102085
2017-10-31T00:30:24.741Z,102081
2017-10-31T00:32:53.556Z,102088
2017-10-31T00:35:21.697Z,102088
2017-10-31T00:37:50.856Z,102084
2017-10-31T00:40:19.008Z,102085
2017-10-31T00:42:47.151Z,102085
2017-10-31T00:45:15.267Z,102088
2017-10-31T00:47:43.357Z,102076
2017-10-31T00:50:11.456Z,102073
2017-10-31T00:52:39.577Z,102079
2017-10-31T00:55:07.919Z,102069
2017-10-31T00:57:36.069Z,102071
2017-10-31T01:00:04.640Z,102066
2017-10-31T01:02:32.757Z,102070
2017-10-31T01:05:00.904Z,102064
2017-10-31T01:07:29.019Z,102070
2017-10-31T01:09:57.147Z,102079
2017-10-31T01:12:25.229Z,102078
2017-10-31T01:14:53.324Z,102075
2017-10-31T01:17:21.596Z,102070
2017-10-31T01:19:49.911Z,102060
2017-10-31T01:22:19.855Z,102075
2017-10-31T01:24:48.727Z,102068
2017-10-31T01:27:16.901Z,102061
2017-10-31T01:29:45.010Z,102063
2017-10-31T01:32:13.169Z,102054
2017-10-31T01:34:41.284Z,102052
2017-10-31T01:37:09.412Z,102055
2017-10-31T01:39:37.511Z,102056
2017-10-31T01:42:05.616Z,102036
2017-10-31T01:44:33.764Z,102044
2017-10-31T01:47:01.892Z,102060
2017-10-31T01:49:30.067Z,102058
2017-10-31T01:51:58.250Z,102046
2017-10-31T01:54:27.304Z,102047
2017-10-31T01:56:55.449Z,102055
2017-10-31T01:59:23.595Z,102048
2017-10-31T02:01:52.459Z,102031
2017-10-31T02:04:21.672Z,102037
2017-10-31T02:06:49.786Z,102043
2017-10-31T02:09:18.056Z,102042
2017-10-31T02:11:46.235Z,102033
2017-10-31T02:14:14.380Z,102040
2017-10-31T02:16:44.530Z,102035
2017-10-31T02:19:12.641Z,102035
2017-10-31T02:21:40.758Z,102039
2017-10-31T02:24:08.966Z,102032
2017-10-31T02:26:37.497Z,102030
2017-10-31T02:29:05.633Z,102046
2017-10-31T02:31:33.736Z,102037
2017-10-31T02:34:04.024Z,102036
2017-10-31T02:36:32.959Z,102032
2017-10-31T02:39:18.782Z,102036
2017-10-31T02:41:46.883Z,102031
2017-10-31T02:44:17.113Z,102026
2017-10-31T02:46:45.429Z,102024
2017-10-31T02:49:13.537Z,102022
2017-10-31T02:51:41.656Z,102024
2017-10-31T02:54:09.800Z,102012
2017-10-31T02:56:37.868Z,102022
2017-10-31T02:59:06.146Z,102017
2017-10-31T03:01:35.294Z,102017
2017-10-31T03:04:04.278Z,102026
2017-10-31T03:06:32.430Z,102018
2017-10-31T03:09:02.021Z,102020
2017-10-31T03:11:30.128Z,102019
2017-10-31T03:14:00.048Z,102021
2017-10-31T03:16:29.238Z,102026
2017-10-31T03:18:58.544Z,102021
2017-10-31T03:21:27.410Z,102029
2017-10-31T03:23:55.657Z,102025
2017-10-31T03:26:27.001Z,102022
2017-10-31T03:28:55.208Z,102035
2017-10-31T03:31:23.373Z,102022
2017-10-31T03:33:51.461Z,102026
2017-10-31T03:36:19.615Z,102028
2017-10-31T09:10:55.706Z,102014
2017-10-31T09:13:25.579Z,102014
2017-10-31T09:15:56.577Z,102015
2017-10-31T09:18:33.518Z,102012
2017-10-31T09:21:13.764Z,102014
2017-10-31T09:23:42.981Z,102012
2017-10-31T09:26:12.249Z,102011
2017-10-31T09:28:41.414Z,102011
2017-10-31T09:31:11.595Z,102011
2017-10-31T09:33:40.529Z,102012
2017-10-31T09:36:09.761Z,102009
2017-10-31T09:38:38.148Z,102003
2017-10-31T09:41:06.453Z,102007
2017-10-31T09:43:38.506Z,102010
2017-10-31T09:46:10.244Z,102002
2017-10-31T09:48:39.459Z,101999
2017-10-31T09:51:10.808Z,101997
2017-10-31T09:53:39.302Z,102003
2017-10-31T09:56:07.566Z,102009
2017-10-31T09:58:38.443Z,101996
2017-10-31T10:01:06.669Z,101998
2017-10-31T10:03:34.829Z,102005
2017-10-31T10:06:04.356Z,101995
2017-10-31T10:08:32.521Z,102005
2017-10-31T10:11:00.714Z,102000
2017-10-31T10:13:32.561Z,101993
2017-10-31T10:16:00.750Z,101993
2017-10-31T10:18:29.893Z,101993
2017-10-31T10:20:59.654Z,101982
2017-10-31T10:23:29.757Z,101989
2017-10-31T10:26:13.791Z,101982
2017-10-31T10:28:44.498Z,101979
2017-10-31T10:33:57.147Z,101973
2017-10-31T10:36:30.452Z,101981
2017-10-31T10:47:58.724Z,101969
2017-10-31T10:50:28.237Z,101960
2017-10-31T10:52:58.638Z,101952
2017-10-31T10:55:29.213Z,101954
2017-10-31T10:58:01.017Z,101942
2017-10-31T11:00:44.144Z,101977
2017-10-31T11:03:22.812Z,101937
2017-10-31T11:05:59.832Z,101942
2017-10-31T11:11:32.099Z,101936
2017-10-31T11:14:00.349Z,101930
2017-10-31T11:16:28.629Z,101919
2017-10-31T11:19:07.169Z,101919
2017-10-31T11:21:37.433Z,101938
2017-10-31T11:24:05.710Z,101929
2017-10-31T11:26:34.167Z,101925
2017-10-31T11:29:03.508Z,101926
2017-10-31T11:31:31.863Z,101920
2017-10-31T11:34:00.785Z,101919
2017-10-31T11:36:29.262Z,101926
2017-10-31T11:38:57.513Z,101913
2017-10-31T11:41:26.642Z,101904
2017-10-31T11:43:58.693Z,101906
2017-10-31T11:46:31.984Z,101907
2017-10-31T11:49:00.342Z,101901
2017-10-31T11:51:29.602Z,101898
2017-10-31T11:53:57.818Z,101896
2017-10-31T11:56:27.788Z,101903
2017-10-31T11:58:55.900Z,101895
2017-10-31T12:01:24.802Z,101890
2017-10-31T12:03:54.359Z,101892
2017-10-31T12:06:22.512Z,101884
2017-10-31T12:08:52.414Z,101889
2017-10-31T12:11:21.965Z,101882
2017-10-31T12:13:51.016Z,101885
2017-10-31T12:16:19.215Z,101893
2017-10-31T12:18:47.366Z,101873
2017-10-31T12:21:16.111Z,101895
2017-10-31T12:23:44.237Z,101889
2017-10-31T12:26:12.593Z,101889
2017-10-31T12:28:41.586Z,101879
2017-10-31T12:31:09.731Z,101875
2017-10-31T12:33:41.517Z,101873
2017-10-31T12:36:11.015Z,101879
2017-10-31T12:38:39.161Z,101871
2017-10-31T12:41:07.265Z,101877
2017-10-31T12:43:35.623Z,101879
2017-10-31T12:46:04.656Z,101870
2017-10-31T12:48:32.765Z,101873
2017-10-31T12:51:00.941Z,101875
2017-10-31T12:53:29.075Z,101874
2017-10-31T12:55:58.358Z,101870
2017-10-31T12:58:26.541Z,101861
2017-10-31T13:00:54.752Z,101869
2017-10-31T13:03:23.092Z,101856
2017-10-31T13:05:51.309Z,101869
2017-10-31T13:08:19.483Z,101870
2017-10-31T13:10:47.628Z,101860
2017-10-31T13:13:15.786Z,101865
2017-10-31T13:15:44.713Z,101863
2017-10-31T13:18:12.849Z,101854
2017-10-31T13:20:41.010Z,101870
2017-10-31T13:23:09.280Z,101861
2017-10-31T13:25:38.537Z,101873
2017-10-31T13:28:07.118Z,101870
2017-10-31T13:30:35.639Z,101861
2017-10-31T13:33:04.320Z,101852
2017-10-31T13:35:32.927Z,101857
2017-10-31T13:38:02.488Z,101862
2017-10-31T13:40:32.234Z,101847
2017-10-31T13:43:01.625Z,101840
2017-10-31T13:45:29.834Z,101845
2017-10-31T13:47:59.431Z,101858
2017-10-31T13:50:27.755Z,101845
2017-10-31T13:52:56.249Z,101841
2017-10-31T13:55:24.584Z,101843
2017-10-31T13:57:54.620Z,101832
2017-10-31T14:00:23.359Z,101834
2017-10-31T14:02:53.033Z,101832
2017-10-31T14:05:23.716Z,101836
2017-10-31T14:07:53.381Z,101827
2017-10-31T14:10:23.456Z,101823
2017-10-31T14:12:55.564Z,101827
2017-10-31T14:18:44.604Z,101829
2017-10-31T14:21:14.543Z,101828
2017-10-31T14:24:03.903Z,101826
2017-10-31T14:26:52.462Z,101826
2017-10-31T14:29:20.587Z,101815
2017-10-31T14:31:48.838Z,101809
2017-10-31T14:34:17.178Z,101812
2017-10-31T14:36:46.338Z,101803
2017-10-31T14:39:15.460Z,101802
2017-10-31T14:41:43.965Z,101800
2017-10-31T14:44:12.083Z,101802
2017-10-31T14:46:41.024Z,101803
2017-10-31T14:49:09.134Z,101794
2017-10-31T14:51:37.324Z,101796
2017-10-31T14:54:06.430Z,101788
2017-10-31T14:56:35.516Z,101787
2017-10-31T14:59:04.760Z,101790
2017-10-31T15:01:35.145Z,101795
2017-10-31T15:04:04.179Z,101792
2017-10-31T15:06:33.337Z,101788
2017-10-31T15:09:03.128Z,101798
2017-10-31T15:11:31.316Z,101787
2017-10-31T15:14:00.197Z,101786
2017-10-31T15:16:28.270Z,101792
2017-10-31T15:18:57.669Z,101790
2017-10-31T15:21:26.284Z,101785
2017-10-31T15:23:54.379Z,101777
2017-10-31T15:26:22.555Z,101784
2017-10-31T15:28:50.645Z,101766
2017-10-31T15:31:18.902Z,101767
2017-10-31T15:33:47.104Z,101762
2017-10-31T15:36:16.530Z,101760
2017-10-31T15:38:44.805Z,101767
2017-10-31T15:41:17.868Z,101763
2017-10-31T15:43:53.464Z,101762
2017-10-31T15:46:26.339Z,101769
2017-10-31T15:48:54.873Z,101771
2017-10-31T15:51:23.281Z,101766
2017-10-31T15:53:53.956Z,101768
2017-10-31T15:56:22.180Z,101763
2017-10-31T15:58:50.348Z,101766
2017-10-31T16:01:18.809Z,101763
2017-10-31T16:03:46.916Z,101765
2017-10-31T16:06:15.036Z,101764
2017-10-31T16:08:44.172Z,101766
2017-10-31T16:11:24.754Z,101759
2017-10-31T16:13:53.024Z,101758
2017-10-31T16:16:21.311Z,101752
2017-10-31T16:18:49.711Z,101764
2017-10-31T16:30:25.689Z,101762
2017-10-31T16:33:11.560Z,101762
2017-10-31T16:41:30.546Z,101750
2017-10-31T16:44:02.620Z,101760
2017-10-31T16:46:31.593Z,101759
2017-10-31T16:48:59.691Z,101749
2017-10-31T16:51:27.776Z,101747
2017-10-31T16:53:56.662Z,101750
2017-10-31T16:56:24.748Z,101762
2017-10-31T16:58:53.659Z,101760
2017-10-31T17:01:21.768Z,101755
2017-10-31T17:03:49.883Z,101761
2017-10-31T17:07:53.657Z,101766
2017-10-31T17:10:21.748Z,101763
2017-10-31T17:12:49.870Z,101758
2017-10-31T17:15:17.980Z,101762
2017-10-31T17:17:46.183Z,101763
2017-10-31T17:20:14.472Z,101762
2017-10-31T17:22:42.571Z,101753
2017-10-31T17:25:10.680Z,101759
2017-10-31T17:27:38.782Z,101763
2017-10-31T17:30:07.156Z,101766
2017-10-31T17:32:35.352Z,101753
2017-10-31T17:35:03.564Z,101760
2017-10-31T17:37:31.689Z,101760
2017-10-31T17:40:00.882Z,101762
2017-10-31T17:42:29.791Z,101770
2017-10-31T17:44:57.948Z,101766
2017-10-31T17:47:26.832Z,101759
2017-10-31T17:49:55.739Z,101771
2017-10-31T17:52:23.825Z,101755
2017-10-31T17:54:53.847Z,101758
2017-10-31T17:57:22.137Z,101758
2017-10-31T17:59:51.146Z,101761
2017-10-31T18:02:20.274Z,101761
2017-10-31T18:04:49.456Z,101763
2017-10-31T18:07:17.588Z,101751
2017-10-31T18:09:45.699Z,101747
2017-10-31T18:12:13.844Z,101746
2017-10-31T18:14:41.986Z,101749
2017-10-31T18:17:10.657Z,101744
2017-10-31T18:19:39.749Z,101743
2017-10-31T18:22:08.044Z,101742
2017-10-31T18:24:38.703Z,101731
2017-10-31T18:27:10.612Z,101742
2017-10-31T18:29:43.293Z,101740
2017-10-31T18:32:13.124Z,101736
2017-10-31T18:34:44.259Z,101730
2017-10-31T18:37:14.292Z,101732
2017-10-31T18:39:42.500Z,101725
2017-10-31T18:42:12.708Z,101722
2017-10-31T18:44:40.819Z,101725
2017-10-31T18:47:09.868Z,101719
2017-10-31T18:49:38.968Z,101721
2017-10-31T18:52:07.073Z,101727
2017-10-31T18:54:35.207Z,101723
2017-10-31T18:57:04.121Z,101717
2017-10-31T18:59:32.520Z,101723
2017-10-31T19:02:00.792Z,101719
2017-10-31T19:04:29.955Z,101717
2017-10-31T19:07:01.175Z,101705
2017-10-31T19:09:29.521Z,101713
2017-10-31T19:12:00.662Z,101708
2017-10-31T19:14:28.800Z,101693
2017-10-31T19:16:58.557Z,101700
2017-10-31T19:19:28.728Z,101702
2017-10-31T19:21:58.078Z,101707
2017-10-31T19:24:26.714Z,101702
2017-10-31T19:26:56.156Z,101706
2017-10-31T19:29:26.135Z,101707
2017-10-31T19:31:55.036Z,101709
2017-10-31T19:34:25.917Z,101703
2017-10-31T19:36:55.585Z,101708
2017-10-31T19:39:23.814Z,101696
2017-10-31T19:41:56.647Z,101704
2017-10-31T19:44:24.802Z,101699
2017-10-31T19:46:53.039Z,101702
2017-10-31T19:49:22.636Z,101711
2017-10-31T19:58:34.493Z,101697
2017-10-31T20:01:03.375Z,101705
2017-10-31T20:03:32.674Z,101699
2017-10-31T20:06:00.822Z,101701
2017-10-31T20:08:28.942Z,101705
2017-10-31T20:10:58.248Z,101699
2017-10-31T20:13:28.217Z,101693
2017-10-31T20:15:57.225Z,101700
2017-10-31T20:18:25.836Z,101697
2017-10-31T20:20:54.072Z,101703
2017-10-31T20:23:22.223Z,101697
2017-10-31T20:25:50.412Z,101693
2017-10-31T20:28:18.591Z,101693
2017-10-31T20:30:47.284Z,101690
2017-10-31T20:33:15.420Z,101688
2017-10-31T20:35:44.549Z,101688
2017-10-31T20:38:12.666Z,101700
2017-10-31T20:40:41.520Z,101696
2017-10-31T20:43:09.653Z,101695
2017-10-31T20:45:37.747Z,101698
2017-10-31T20:48:05.911Z,101685
2017-10-31T20:50:34.024Z,101688
2017-10-31T20:53:02.131Z,101697
2017-10-31T20:55:30.247Z,101699
2017-10-31T20:57:58.424Z,101706
2017-10-31T21:00:26.532Z,101703
2017-10-31T21:02:54.854Z,101708
2017-10-31T21:05:22.979Z,101686
2017-10-31T21:07:52.647Z,101680
2017-10-31T21:10:20.777Z,101682
2017-10-31T21:12:49.808Z,101675
2017-10-31T21:15:17.912Z,101675
2017-10-31T21:17:46.011Z,101672
2017-10-31T21:20:14.160Z,101679
2017-10-31T21:22:42.556Z,101666
2017-10-31T21:25:11.507Z,101669
2017-10-31T21:27:39.611Z,101663
2017-10-31T21:30:07.683Z,101671
2017-10-31T21:32:36.602Z,101675
2017-10-31T21:35:04.693Z,101657
2017-10-31T21:37:32.835Z,101672
2017-10-31T21:40:01.044Z,101677
2017-10-31T21:42:29.121Z,101670
2017-10-31T21:44:57.311Z,101672
2017-10-31T21:47:27.464Z,101678
2017-10-31T21:49:57.409Z,101670
2017-10-31T21:52:25.560Z,101657
2017-10-31T21:54:53.695Z,101662
2017-10-31T21:57:21.973Z,101663
2017-10-31T21:59:50.081Z,101652
2017-10-31T22:02:19.199Z,101662
2017-10-31T22:04:47.332Z,101654
2017-10-31T22:07:15.800Z,101653
2017-10-31T22:09:43.961Z,101649
2017-10-31T22:12:13.395Z,101646
2017-10-31T22:14:41.619Z,101647
2017-10-31T22:17:10.737Z,101643
2017-10-31T22:19:38.895Z,101648
2017-10-31T22:22:07.044Z,101645
2017-10-31T22:27:10.064Z,101649
2017-10-31T22:29:38.401Z,101638
2017-10-31T22:32:06.529Z,101648
2017-10-31T22:34:35.617Z,101636
2017-10-31T22:37:03.739Z,101635
2017-10-31T22:39:32.757Z,101638
2017-10-31T22:42:02.134Z,101629
2017-10-31T22:44:30.257Z,101630
2017-10-31T22:46:58.456Z,101629
2017-10-31T22:49:26.548Z,101628
2017-10-31T22:51:54.665Z,101623
2017-10-31T22:54:22.801Z,101628
2017-10-31T22:56:50.918Z,101626
2017-10-31T22:59:19.068Z,101621
2017-10-31T23:01:47.253Z,101634
2017-10-31T23:04:15.361Z,101628
2017-10-31T23:06:44.397Z,101627
2017-10-31T23:09:12.897Z,101624
2017-10-31T23:11:41.099Z,101624
2017-10-31T23:14:10.185Z,101614
2017-10-31T23:16:38.368Z,101613
2017-10-31T23:19:06.672Z,101617
2017-10-31T23:21:34.803Z,101613
2017-10-31T23:24:03.880Z,101608
2017-10-31T23:26:32.902Z,101628
2017-10-31T23:29:02.155Z,101620
2017-10-31T23:31:30.247Z,101614
2017-10-31T23:34:01.790Z,101602
2017-10-31T23:36:29.934Z,101597
2017-10-31T23:38:58.034Z,101598
2017-10-31T23:41:26.657Z,101601
2017-10-31T23:43:55.716Z,101601
2017-10-31T23:46:24.593Z,101598
2017-10-31T23:48:52.737Z,101604
2017-10-31T23:51:20.852Z,101598
2017-10-31T23:53:48.969Z,101603
2017-10-31T23:56:22.569Z,101592
2017-10-31T23:58:51.719Z,101592
